createdAt,value
2022-11-03T00:01:46.655Z,12.47
2022-11-03T00:04:15.337Z,12.49
2022-11-03T00:06:44.180Z,12.50
2022-11-03T00:09:12.682Z,12.50
2022-11-03T00:11:41.504Z,12.48
2022-11-03T00:14:09.423Z,12.49
2022-11-03T00:16:36.469Z,12.51
2022-11-03T00:19:03.390Z,12.53
2022-11-03T00:21:30.482Z,12.56
2022-11-03T00:23:57.215Z,12.56
2022-11-03T00:26:25.091Z,12.57
2022-11-03T00:28:54.108Z,12.51
2022-11-03T00:31:26.891Z,12.37
2022-11-03T00:33:54.865Z,12.32
2022-11-03T00:36:26.112Z,12.34
2022-11-03T00:38:52.913Z,12.33
2022-11-03T00:41:21.056Z,12.32
2022-11-03T00:43:48.134Z,12.20
2022-11-03T00:46:14.749Z,12.22
2022-11-03T00:48:41.540Z,12.13
2022-11-03T00:51:11.053Z,12.16
2022-11-03T00:53:45.831Z,12.16
2022-11-03T00:56:17.683Z,12.24
2022-11-03T00:58:44.413Z,12.28
2022-11-03T01:01:13.390Z,12.32
2022-11-03T01:03:41.913Z,12.34
2022-11-03T01:06:28.370Z,12.37
2022-11-03T01:08:55.026Z,12.33
2022-11-03T01:11:42.419Z,12.34
2022-11-03T01:14:10.832Z,12.35
2022-11-03T01:16:37.509Z,12.31
2022-11-03T01:19:04.379Z,12.24
2022-11-03T01:21:30.961Z,12.27
2022-11-03T01:24:01.735Z,12.29
2022-11-03T01:26:29.025Z,12.30
2022-11-03T01:28:55.604Z,12.33
2022-11-03T01:31:24.740Z,12.35
2022-11-03T01:33:53.226Z,12.32
2022-11-03T01:36:20.429Z,12.20
2022-11-03T01:38:47.108Z,12.17
2022-11-03T01:41:16.922Z,12.15
2022-11-03T01:43:43.712Z,12.14
2022-11-03T01:46:12.944Z,12.03
2022-11-03T01:48:44.532Z,12.00
2022-11-03T01:51:14.858Z,12.01
2022-11-03T01:53:47.001Z,12.02
2022-11-03T01:56:15.914Z,12.00
2022-11-03T01:58:45.003Z,11.86
2022-11-03T02:01:12.652Z,11.91
2022-11-03T02:03:42.779Z,12.00
2022-11-03T02:06:10.078Z,12.03
2022-11-03T02:08:44.001Z,11.89
2022-11-03T02:11:29.100Z,11.81
2022-11-03T02:13:55.873Z,11.89
2022-11-03T02:16:25.409Z,11.96
2022-11-03T02:18:54.251Z,11.97
2022-11-03T02:21:44.055Z,11.93
2022-11-03T02:24:13.520Z,11.92
2022-11-03T02:26:42.170Z,11.94
2022-11-03T02:29:08.809Z,12.01
2022-11-03T02:31:41.657Z,12.08
2022-11-03T02:34:21.578Z,12.08
2022-11-03T02:37:04.728Z,11.99
2022-11-03T02:39:37.477Z,11.94
2022-11-03T02:42:05.271Z,11.91
2022-11-03T02:44:34.103Z,11.88
2022-11-03T02:47:05.856Z,11.84
2022-11-03T02:49:37.682Z,11.81
2022-11-03T02:52:06.410Z,11.86
2022-11-03T02:54:39.013Z,11.83
2022-11-03T02:57:16.513Z,11.88
2022-11-03T03:00:06.411Z,11.83
2022-11-03T03:02:52.901Z,11.85
2022-11-03T03:05:23.060Z,11.93
2022-11-03T03:07:55.474Z,11.99
2022-11-03T03:10:26.585Z,12.02
2022-11-03T03:12:56.451Z,12.05
2022-11-03T03:15:38.878Z,12.06
2022-11-03T03:18:31.396Z,12.05
2022-11-03T03:21:21.069Z,12.01
2022-11-03T03:23:55.661Z,11.94
2022-11-03T03:26:33.175Z,11.93
2022-11-03T03:29:10.991Z,11.91
2022-11-03T03:31:40.917Z,11.88
2022-11-03T03:34:23.794Z,11.92
2022-11-03T03:36:58.227Z,11.99
2022-11-03T03:39:28.371Z,12.05
2022-11-03T03:41:56.707Z,12.09
2022-11-03T03:44:24.865Z,12.06
2022-11-03T03:46:58.278Z,12.06
2022-11-03T03:49:24.984Z,12.08
2022-11-03T03:51:51.732Z,12.06
2022-11-03T03:54:18.361Z,12.05
2022-11-03T03:57:00.708Z,12.08
2022-11-03T03:59:27.748Z,12.08
2022-11-03T04:01:54.440Z,12.10
2022-11-03T04:04:21.834Z,12.10
2022-11-03T04:06:48.383Z,12.13
2022-11-03T04:09:15.116Z,12.15
2022-11-03T04:12:00.834Z,12.14
2022-11-03T04:14:46.230Z,12.16
2022-11-03T04:17:54.225Z,12.15
2022-11-03T04:20:39.178Z,12.05
2022-11-03T04:23:05.787Z,11.95
2022-11-03T04:25:32.473Z,11.97
2022-11-03T04:27:59.370Z,12.01
2022-11-03T04:30:26.417Z,12.05
2022-11-03T04:32:54.462Z,12.04
2022-11-03T04:35:26.443Z,12.03
2022-11-03T04:38:16.550Z,12.05
2022-11-03T04:40:53.610Z,12.04
2022-11-03T04:43:24.544Z,12.01
2022-11-03T04:45:51.312Z,11.96
2022-11-03T04:48:25.235Z,11.80
2022-11-03T04:50:58.293Z,11.67
2022-11-03T04:53:28.262Z,11.66
2022-11-03T04:55:55.084Z,11.66
2022-11-03T04:58:34.589Z,11.66
2022-11-03T05:01:03.761Z,11.71
2022-11-03T05:03:33.910Z,11.75
2022-11-03T05:06:26.309Z,11.78
2022-11-03T05:09:00.421Z,11.81
2022-11-03T05:11:42.882Z,11.78
2022-11-03T05:14:22.145Z,11.79
2022-11-03T05:16:51.788Z,11.80
2022-11-03T05:19:23.014Z,11.82
2022-11-03T05:21:50.714Z,11.81
2022-11-03T05:24:21.236Z,11.77
2022-11-03T05:26:48.549Z,11.74
2022-11-03T05:29:26.517Z,11.68
2022-11-03T05:31:55.095Z,11.68
2022-11-03T05:34:32.327Z,11.68
2022-11-03T05:37:04.487Z,11.71
2022-11-03T05:39:36.683Z,11.73
2022-11-03T05:42:22.695Z,11.77
2022-11-03T05:44:51.583Z,11.75
2022-11-03T05:47:31.331Z,11.75
2022-11-03T05:50:08.048Z,11.72
2022-11-03T05:52:34.669Z,11.67
2022-11-03T05:55:02.200Z,11.70
2022-11-03T05:57:30.308Z,11.73
2022-11-03T05:59:57.083Z,11.69
2022-11-03T06:02:37.470Z,11.61
2022-11-03T06:05:34.391Z,11.51
2022-11-03T06:08:12.893Z,11.46
2022-11-03T06:10:45.170Z,11.56
2022-11-03T06:13:16.243Z,11.64
2022-11-03T06:15:45.691Z,11.75
2022-11-03T06:18:22.498Z,11.83
2022-11-03T06:20:52.669Z,11.87
2022-11-03T06:23:20.979Z,11.89
2022-11-03T06:25:48.810Z,11.92
2022-11-03T06:28:30.254Z,11.96
2022-11-03T06:30:57.402Z,11.97
2022-11-03T06:33:29.094Z,11.98
2022-11-03T06:36:01.757Z,12.00
2022-11-03T06:38:31.524Z,11.89
2022-11-03T06:40:58.861Z,11.89
2022-11-03T06:43:31.806Z,12.00
2022-11-03T06:46:01.103Z,12.05
2022-11-03T06:48:29.800Z,12.13
2022-11-03T06:50:58.962Z,12.17
2022-11-03T06:53:29.483Z,12.12
2022-11-03T06:55:56.409Z,12.07
2022-11-03T06:58:30.681Z,12.16
2022-11-03T07:01:03.653Z,12.26
2022-11-03T07:03:37.993Z,12.32
2022-11-03T07:06:10.750Z,12.39
2022-11-03T07:08:41.979Z,12.34
2022-11-03T07:11:30.084Z,12.34
2022-11-03T07:14:18.150Z,12.26
2022-11-03T07:16:48.625Z,12.25
2022-11-03T07:19:23.653Z,12.29
2022-11-03T07:21:51.279Z,12.34
2022-11-03T07:24:31.118Z,12.46
2022-11-03T07:27:14.107Z,12.53
2022-11-03T07:29:41.038Z,12.58
2022-11-03T07:32:23.147Z,12.68
2022-11-03T07:34:52.993Z,12.76
2022-11-03T07:37:25.961Z,12.85
2022-11-03T07:39:53.204Z,12.81
2022-11-03T07:42:23.062Z,12.87
2022-11-03T07:44:55.818Z,12.95
2022-11-03T07:47:28.031Z,13.04
2022-11-03T07:49:56.177Z,13.11
2022-11-03T07:52:24.858Z,13.22
2022-11-03T07:54:54.989Z,13.23
2022-11-03T07:57:23.292Z,13.26
2022-11-03T07:59:53.887Z,13.33
2022-11-03T08:02:20.692Z,13.45
2022-11-03T08:04:47.359Z,13.54
2022-11-03T08:07:13.862Z,13.66
2022-11-03T08:09:40.534Z,13.73
2022-11-03T08:12:07.793Z,13.83
2022-11-03T08:14:34.366Z,13.95
2022-11-03T08:17:00.956Z,13.96
2022-11-03T08:19:27.788Z,13.82
2022-11-03T08:21:54.471Z,13.72
2022-11-03T08:24:21.026Z,13.57
2022-11-03T08:26:47.605Z,13.57
2022-11-03T08:29:14.534Z,13.48
2022-11-03T08:31:41.641Z,13.58
2022-11-03T08:34:08.228Z,13.65
2022-11-03T08:36:34.902Z,13.74
2022-11-03T08:39:01.614Z,13.77
2022-11-03T08:41:28.350Z,13.84
2022-11-03T08:43:55.274Z,13.91
2022-11-03T08:46:21.988Z,13.91
2022-11-03T08:48:48.808Z,13.96
2022-11-03T08:51:16.365Z,14.07
2022-11-03T08:53:43.312Z,14.14
2022-11-03T08:56:12.896Z,14.30
2022-11-03T08:58:46.168Z,14.44
2022-11-03T09:01:13.081Z,14.56
2022-11-03T09:03:40.579Z,14.85
2022-11-03T09:06:09.289Z,15.05
2022-11-03T09:11:27.826Z,15.26
2022-11-03T09:13:54.479Z,15.43
2022-11-03T09:16:21.174Z,15.54
2022-11-03T09:18:47.818Z,15.59
2022-11-03T09:21:15.416Z,15.40
2022-11-03T09:23:42.031Z,15.35
2022-11-03T09:26:09.101Z,15.21
2022-11-03T09:28:35.761Z,15.34
2022-11-03T09:31:02.512Z,15.21
2022-11-03T09:33:29.765Z,15.23
2022-11-03T09:35:57.005Z,15.32
2022-11-03T09:38:23.764Z,15.37
2022-11-03T09:40:50.419Z,15.50
2022-11-03T09:43:17.080Z,15.49
2022-11-03T09:45:44.062Z,15.36
2022-11-03T09:48:13.089Z,15.22
2022-11-03T09:50:40.495Z,15.39
2022-11-03T09:53:11.600Z,15.71
2022-11-03T09:55:39.683Z,15.87
2022-11-03T09:58:14.805Z,15.99
2022-11-03T10:00:42.059Z,16.09
2022-11-03T10:03:14.384Z,16.15
2022-11-03T10:05:44.130Z,15.78
2022-11-03T10:08:28.121Z,15.43
2022-11-03T10:10:56.261Z,15.56
2022-11-03T10:13:52.967Z,15.75
2022-11-03T10:16:22.919Z,16.07
2022-11-03T10:18:50.178Z,16.36
2022-11-03T10:21:34.046Z,16.49
2022-11-03T10:24:00.975Z,16.72
2022-11-03T10:26:27.854Z,16.82
2022-11-03T10:29:05.960Z,16.93
2022-11-03T10:31:39.953Z,17.11
2022-11-03T10:34:39.513Z,17.18
2022-11-03T10:37:18.167Z,17.02
2022-11-03T10:39:45.950Z,17.05
2022-11-03T10:42:35.391Z,16.75
2022-11-03T10:45:20.389Z,16.40
2022-11-03T10:48:09.248Z,16.54
2022-11-03T10:50:35.936Z,16.68
2022-11-03T10:53:03.701Z,16.74
2022-11-03T10:55:30.858Z,16.78
2022-11-03T10:57:59.054Z,16.72
2022-11-03T11:00:25.724Z,16.59
2022-11-03T11:02:58.899Z,16.70
2022-11-03T11:05:25.717Z,16.70
2022-11-03T11:07:54.277Z,16.69
2022-11-03T11:10:27.009Z,16.48
2022-11-03T11:13:18.922Z,16.37
2022-11-03T11:15:47.637Z,16.21
2022-11-03T11:18:29.455Z,16.54
2022-11-03T11:20:59.686Z,16.53
2022-11-03T11:23:29.304Z,16.05
2022-11-03T11:26:14.499Z,16.01
2022-11-03T11:28:43.157Z,15.73
2022-11-03T11:31:33.392Z,15.67
2022-11-03T11:34:08.847Z,15.81
2022-11-03T11:36:37.056Z,16.00
2022-11-03T11:39:11.185Z,15.96
2022-11-03T11:42:15.477Z,15.98
2022-11-03T11:44:54.917Z,15.62
2022-11-03T11:47:32.151Z,15.37
2022-11-03T11:50:10.753Z,15.54
2022-11-03T11:52:47.483Z,15.65
2022-11-03T11:55:41.929Z,15.71
2022-11-03T11:58:20.380Z,15.67
2022-11-03T12:01:00.204Z,15.56
2022-11-03T12:03:49.365Z,15.56
2022-11-03T12:06:19.376Z,15.56
2022-11-03T12:08:45.913Z,15.62
2022-11-03T12:11:19.466Z,15.60
2022-11-03T12:13:49.246Z,15.39
2022-11-03T12:16:31.094Z,15.11
2022-11-03T12:19:18.280Z,14.96
2022-11-03T12:21:47.505Z,15.05
2022-11-03T12:24:32.567Z,15.26
2022-11-03T12:27:00.313Z,15.33
2022-11-03T12:29:26.953Z,15.37
2022-11-03T12:31:54.334Z,15.39
2022-11-03T12:34:23.868Z,15.63
2022-11-03T12:36:55.784Z,15.73
2022-11-03T12:39:22.820Z,16.01
2022-11-03T12:41:49.484Z,16.24
2022-11-03T12:44:16.174Z,16.41
2022-11-03T12:46:43.434Z,16.47
2022-11-03T12:49:10.135Z,16.52
2022-11-03T12:51:36.792Z,16.61
2022-11-03T12:54:03.508Z,16.57
2022-11-03T12:56:30.101Z,16.39
2022-11-03T12:58:56.823Z,16.31
2022-11-03T13:01:23.553Z,16.33
2022-11-03T13:03:50.257Z,16.28
2022-11-03T13:06:16.982Z,16.15
2022-11-03T13:08:44.789Z,16.12
2022-11-03T13:11:32.023Z,16.13
2022-11-03T13:13:59.250Z,16.07
2022-11-03T13:16:25.899Z,16.11
2022-11-03T13:18:52.753Z,16.06
2022-11-03T13:21:19.385Z,15.95
2022-11-03T13:23:45.966Z,15.88
2022-11-03T13:26:12.580Z,15.78
2022-11-03T13:28:39.305Z,15.80
2022-11-03T13:31:06.230Z,15.72
2022-11-03T13:33:32.806Z,15.60
2022-11-03T13:35:59.476Z,15.58
2022-11-03T13:38:26.260Z,15.54
2022-11-03T13:40:56.651Z,15.41
2022-11-03T13:43:24.900Z,15.37
2022-11-03T13:45:52.818Z,15.39
2022-11-03T13:49:21.543Z,15.37
2022-11-03T13:51:07.531Z,15.33
2022-11-03T13:56:22.265Z,15.23
2022-11-03T14:01:37.719Z,15.19
2022-11-03T14:06:51.957Z,15.20
2022-11-03T14:09:18.540Z,15.32
2022-11-03T14:12:03.739Z,15.43
2022-11-03T14:14:30.387Z,15.47
2022-11-03T14:16:57.129Z,15.41
2022-11-03T14:19:29.433Z,15.42
2022-11-03T14:22:02.604Z,15.54
2022-11-03T14:24:29.299Z,15.62
2022-11-03T14:26:55.874Z,15.67
2022-11-03T14:29:22.567Z,15.69
2022-11-03T14:31:49.204Z,15.72
2022-11-03T14:34:16.089Z,15.76
2022-11-03T14:36:42.921Z,15.81
2022-11-03T14:39:09.619Z,15.83
2022-11-03T14:41:54.804Z,15.78
2022-11-03T14:44:21.361Z,15.77
2022-11-03T14:46:48.047Z,15.74
2022-11-03T14:49:14.710Z,15.73
2022-11-03T14:51:41.318Z,15.66
2022-11-03T14:54:07.908Z,15.61
2022-11-03T14:56:34.483Z,15.65
2022-11-03T14:59:01.022Z,15.71
2022-11-03T15:01:27.904Z,15.74
2022-11-03T15:03:54.611Z,15.72
2022-11-03T15:06:21.645Z,15.71
2022-11-03T15:08:53.439Z,15.68
2022-11-03T15:11:22.882Z,15.63
2022-11-03T15:13:52.317Z,15.61
2022-11-03T15:16:19.121Z,15.53
2022-11-03T15:18:45.686Z,15.42
2022-11-03T15:21:12.414Z,15.40
2022-11-03T15:26:26.020Z,15.39
2022-11-03T15:28:52.708Z,15.40
2022-11-03T15:31:19.312Z,15.42
2022-11-03T15:33:45.962Z,15.41
2022-11-03T15:36:12.664Z,15.39
2022-11-03T15:38:39.581Z,15.35
2022-11-03T15:41:19.383Z,15.31
2022-11-03T15:43:47.170Z,15.23
2022-11-03T15:46:15.344Z,15.12
2022-11-03T15:48:43.193Z,15.12
2022-11-03T15:51:10.127Z,15.10
2022-11-03T15:53:36.994Z,15.08
2022-11-03T15:56:04.044Z,15.00
2022-11-03T15:58:34.422Z,14.95
2022-11-03T16:01:03.154Z,14.95
2022-11-03T16:03:31.807Z,14.92
2022-11-03T16:05:59.113Z,14.93
2022-11-03T16:08:26.191Z,14.97
2022-11-03T16:10:57.713Z,14.98
2022-11-03T16:13:25.073Z,14.98
2022-11-03T16:15:53.244Z,15.02
2022-11-03T16:18:20.350Z,15.03
2022-11-03T16:20:47.075Z,15.05
2022-11-03T16:23:13.679Z,15.05
2022-11-03T16:25:40.421Z,15.05
2022-11-03T16:28:07.297Z,15.04
2022-11-03T16:30:35.223Z,15.04
2022-11-03T16:33:01.777Z,15.04
2022-11-03T16:35:29.664Z,15.04
2022-11-03T16:37:56.559Z,15.05
2022-11-03T16:40:23.661Z,15.02
2022-11-03T16:42:50.523Z,15.02
2022-11-03T16:45:22.249Z,15.00
2022-11-03T16:47:50.563Z,14.96
2022-11-03T16:50:18.797Z,14.92
2022-11-03T16:52:46.644Z,14.87
2022-11-03T16:55:14.974Z,14.86
2022-11-03T16:57:42.360Z,14.83
2022-11-03T17:00:13.874Z,14.85
2022-11-03T17:02:40.897Z,14.80
2022-11-03T17:05:08.404Z,14.71
2022-11-03T17:07:35.237Z,14.67
2022-11-03T17:10:02.011Z,14.63
2022-11-03T17:12:28.572Z,14.66
2022-11-03T17:14:56.768Z,14.68
2022-11-03T17:17:24.245Z,14.64
2022-11-03T17:19:51.614Z,14.63
2022-11-03T17:22:18.401Z,14.63
2022-11-03T17:24:45.145Z,14.65
2022-11-03T17:27:11.853Z,14.69
2022-11-03T17:29:42.805Z,14.67
2022-11-03T17:32:18.705Z,14.61
2022-11-03T17:34:45.466Z,14.53
2022-11-03T17:37:12.155Z,14.48
2022-11-03T17:39:41.306Z,14.38
2022-11-03T17:42:23.242Z,14.41
2022-11-03T17:44:51.443Z,14.40
2022-11-03T17:47:19.915Z,14.27
2022-11-03T17:49:47.737Z,14.21
2022-11-03T17:52:28.660Z,14.12
2022-11-03T17:55:00.106Z,14.01
2022-11-03T17:57:27.150Z,13.96
2022-11-03T17:59:57.112Z,13.90
2022-11-03T18:02:30.684Z,13.86
2022-11-03T18:05:14.090Z,13.77
2022-11-03T18:07:43.631Z,13.67
2022-11-03T18:10:10.271Z,13.52
2022-11-03T18:12:59.058Z,13.53
2022-11-03T18:15:27.081Z,13.55
2022-11-03T18:17:53.834Z,13.51
2022-11-03T18:20:30.383Z,13.36
2022-11-03T18:23:15.593Z,13.20
2022-11-03T18:25:42.362Z,13.20
2022-11-03T18:28:09.267Z,13.33
2022-11-03T18:30:36.487Z,13.48
2022-11-03T18:33:03.205Z,13.55
2022-11-03T18:35:32.554Z,13.64
2022-11-03T18:37:59.632Z,13.76
2022-11-03T18:40:26.622Z,13.84
2022-11-03T18:42:53.249Z,13.88
2022-11-03T18:45:20.065Z,13.88
2022-11-03T18:47:46.813Z,13.94
2022-11-03T18:50:17.550Z,13.94
2022-11-03T18:52:52.007Z,13.97
2022-11-03T18:55:18.887Z,14.06
2022-11-03T18:57:45.499Z,14.19
2022-11-03T19:00:23.038Z,14.29
2022-11-03T19:02:50.638Z,14.28
2022-11-03T19:05:18.979Z,14.27
2022-11-03T19:07:49.193Z,14.33
2022-11-03T19:10:22.219Z,14.30
2022-11-03T19:12:49.086Z,14.28
2022-11-03T19:15:22.686Z,14.28
2022-11-03T19:17:57.413Z,14.24
2022-11-03T19:20:25.448Z,14.16
2022-11-03T19:22:52.746Z,14.14
2022-11-03T19:25:19.452Z,14.11
2022-11-03T19:27:47.903Z,14.09
2022-11-03T19:30:19.362Z,14.08
2022-11-03T19:32:48.945Z,13.98
2022-11-03T19:35:18.476Z,14.00
2022-11-03T19:37:46.683Z,13.99
2022-11-03T19:40:17.009Z,13.99
2022-11-03T19:42:45.001Z,13.83
2022-11-03T19:45:16.061Z,13.76
2022-11-03T19:48:22.404Z,13.46
2022-11-03T19:50:45.313Z,13.24
2022-11-03T19:53:18.557Z,13.12
2022-11-03T19:55:45.257Z,13.02
2022-11-03T19:58:18.726Z,12.92
2022-11-03T20:00:46.341Z,12.80
2022-11-03T20:03:13.544Z,12.78
2022-11-03T20:05:44.990Z,12.86
2022-11-03T20:08:18.778Z,12.91
2022-11-03T20:10:47.952Z,12.94
2022-11-03T20:13:23.853Z,12.98
2022-11-03T20:15:53.566Z,12.98
2022-11-03T20:18:23.212Z,12.96
2022-11-03T20:20:50.195Z,13.02
2022-11-03T20:23:26.201Z,13.14
2022-11-03T20:25:53.670Z,13.12
2022-11-03T20:28:28.265Z,13.04
2022-11-03T20:30:56.309Z,13.04
2022-11-03T20:33:24.713Z,13.05
2022-11-03T20:35:53.420Z,12.94
2022-11-03T20:38:20.884Z,12.84
2022-11-03T20:40:49.043Z,12.75
2022-11-03T20:43:38.387Z,12.80
2022-11-03T20:46:20.600Z,12.74
2022-11-03T20:48:47.432Z,12.65
2022-11-03T20:51:19.772Z,12.67
2022-11-03T20:53:47.883Z,12.66
2022-11-03T20:56:20.225Z,12.80
2022-11-03T20:58:47.444Z,13.00
2022-11-03T21:01:19.852Z,13.15
2022-11-03T21:03:59.341Z,13.15
2022-11-03T21:06:28.553Z,13.13
2022-11-03T21:08:55.374Z,13.20
2022-11-03T21:11:24.866Z,13.30
2022-11-03T21:13:52.724Z,13.34
2022-11-03T21:16:37.904Z,13.40
2022-11-03T21:19:40.447Z,13.47
2022-11-03T21:22:55.386Z,13.62
2022-11-03T21:25:23.949Z,13.67
2022-11-03T21:27:51.164Z,13.76
2022-11-03T21:30:18.557Z,13.78
2022-11-03T21:32:45.447Z,13.87
2022-11-03T21:35:17.579Z,13.89
2022-11-03T21:37:44.300Z,13.57
2022-11-03T21:40:12.041Z,13.14
2022-11-03T21:42:57.363Z,12.89
2022-11-03T21:45:24.117Z,12.97
2022-11-03T21:48:13.529Z,13.00
2022-11-03T21:50:41.074Z,13.13
2022-11-03T21:53:08.086Z,13.18
2022-11-03T21:55:35.430Z,13.24
2022-11-03T21:58:03.285Z,13.24
2022-11-03T22:00:30.257Z,13.27
2022-11-03T22:02:56.823Z,13.16
2022-11-03T22:05:23.486Z,13.13
2022-11-03T22:07:50.051Z,13.17
2022-11-03T22:10:17.838Z,13.19
2022-11-03T22:12:44.559Z,13.31
2022-11-03T22:15:29.897Z,13.22
2022-11-03T22:18:06.608Z,13.21
2022-11-03T22:21:03.001Z,13.13
2022-11-03T22:23:47.915Z,13.06
2022-11-03T22:26:34.932Z,13.01
2022-11-03T22:29:20.058Z,13.03
2022-11-03T22:31:46.763Z,13.08
2022-11-03T22:34:31.844Z,13.16
2022-11-03T22:36:58.467Z,13.18
2022-11-03T22:39:43.645Z,13.16
2022-11-03T22:42:31.991Z,13.14
2022-11-03T22:45:17.260Z,13.22
2022-11-03T22:47:44.101Z,13.28
2022-11-03T22:50:10.670Z,13.31
2022-11-03T22:52:37.401Z,13.34
2022-11-03T22:55:04.455Z,13.38
2022-11-03T22:57:31.041Z,13.36
2022-11-03T22:59:57.653Z,13.35
2022-11-03T23:02:24.341Z,13.39
2022-11-03T23:04:51.050Z,13.34
2022-11-03T23:07:17.614Z,13.33
2022-11-03T23:09:44.262Z,13.32
2022-11-03T23:12:11.320Z,13.33
2022-11-03T23:15:00.817Z,13.37
2022-11-03T23:17:48.358Z,13.36
2022-11-03T23:20:33.624Z,13.36
2022-11-03T23:23:00.908Z,13.37
2022-11-03T23:25:27.523Z,13.38
2022-11-03T23:27:57.028Z,13.43
2022-11-03T23:30:23.658Z,13.46
2022-11-03T23:32:50.297Z,13.40
2022-11-03T23:35:17.312Z,13.42
2022-11-03T23:37:43.902Z,13.39
2022-11-03T23:40:11.313Z,13.41
2022-11-03T23:42:37.844Z,13.41
2022-11-03T23:45:23.497Z,13.39
2022-11-03T23:48:08.842Z,13.39
2022-11-03T23:50:38.499Z,13.42
2022-11-03T23:53:05.223Z,13.43
2022-11-03T23:55:53.510Z,13.45
2022-11-03T23:58:20.436Z,13.45
